createdAt,value
2017-09-11T00:00:17.737Z,989.32
2017-09-11T00:01:28.108Z,989.36
2017-09-11T00:02:38.454Z,989.36
2017-09-11T00:03:48.810Z,989.36
2017-09-11T00:04:59.148Z,989.34
2017-09-11T00:06:09.510Z,989.32
2017-09-11T00:07:19.902Z,989.31
2017-09-11T00:08:30.237Z,989.26
2017-09-11T00:09:40.258Z,989.21
2017-09-11T00:10:50.606Z,989.21
2017-09-11T00:12:00.870Z,989.21
2017-09-11T00:13:11.267Z,989.19
2017-09-11T00:14:21.646Z,989.23
2017-09-11T00:15:31.663Z,989.23
2017-09-11T00:16:42.017Z,989.21
2017-09-11T00:17:52.048Z,989.2
2017-09-11T00:19:02.418Z,989.26
2017-09-11T00:20:12.779Z,989.29
2017-09-11T00:21:22.796Z,989.18
2017-09-11T00:22:33.147Z,989.16
2017-09-11T00:23:43.500Z,989.11
2017-09-11T00:24:53.837Z,989.09
2017-09-11T00:26:03.844Z,989.07
2017-09-11T00:27:14.181Z,989.1
2017-09-11T00:28:24.519Z,989.08
2017-09-11T00:29:34.547Z,989.06
2017-09-11T00:30:44.894Z,989.08
2017-09-11T00:31:54.913Z,989.06
2017-09-11T00:33:05.249Z,989
2017-09-11T00:34:17.941Z,988.97
2017-09-11T00:35:28.273Z,988.99
2017-09-11T00:36:38.290Z,988.93
2017-09-11T00:37:47.997Z,988.92
2017-09-11T00:38:58.326Z,988.89
2017-09-11T00:40:08.353Z,988.87
2017-09-11T00:41:18.378Z,988.81
2017-09-11T00:42:28.754Z,988.86
2017-09-11T00:43:39.085Z,988.92
2017-09-11T00:44:49.113Z,988.91
2017-09-11T00:45:59.449Z,988.92
2017-09-11T00:47:10.947Z,988.93
2017-09-11T00:48:21.299Z,988.87
2017-09-11T00:49:31.321Z,988.86
2017-09-11T00:50:41.642Z,988.88
2017-09-11T00:51:52.685Z,988.83
2017-09-11T00:53:05.270Z,988.85
2017-09-11T00:54:15.639Z,988.87
2017-09-11T00:55:25.986Z,988.86
2017-09-11T00:56:36.315Z,988.87
2017-09-11T00:57:47.168Z,988.86
2017-09-11T00:58:58.058Z,988.88
2017-09-11T01:00:08.841Z,988.82
2017-09-11T01:01:19.193Z,988.85
2017-09-11T01:02:29.214Z,988.86
2017-09-11T01:03:39.242Z,988.84
2017-09-11T01:04:50.924Z,988.86
2017-09-11T01:06:01.302Z,988.84
2017-09-11T01:07:11.638Z,988.77
2017-09-11T01:08:21.648Z,988.72
2017-09-11T01:09:31.919Z,988.75
2017-09-11T01:10:42.253Z,988.77
2017-09-11T01:11:55.735Z,988.83
2017-09-11T01:13:06.076Z,988.81
2017-09-11T01:14:16.428Z,988.83
2017-09-11T01:15:26.768Z,988.8
2017-09-11T01:16:37.110Z,988.74
2017-09-11T01:17:47.446Z,988.72
2017-09-11T01:18:57.798Z,988.7
2017-09-11T01:20:07.501Z,988.69
2017-09-11T01:21:17.213Z,988.63
2017-09-11T01:22:27.248Z,988.59
2017-09-11T01:23:37.593Z,988.54
2017-09-11T01:24:47.932Z,988.48
2017-09-11T01:25:58.267Z,988.47
2017-09-11T01:27:08.601Z,988.49
2017-09-11T01:28:18.928Z,988.48
2017-09-11T01:29:28.993Z,988.41
2017-09-11T01:30:39.322Z,988.39
2017-09-11T01:31:49.359Z,988.42
2017-09-11T01:32:59.720Z,988.44
2017-09-11T01:34:10.302Z,988.39
2017-09-11T01:35:20.319Z,988.38
2017-09-11T01:36:30.036Z,988.32
2017-09-11T01:37:40.375Z,988.36
2017-09-11T01:38:50.416Z,988.32
2017-09-11T01:40:00.757Z,988.28
2017-09-11T01:41:11.150Z,988.22
2017-09-11T01:42:21.171Z,988.22
2017-09-11T01:43:31.516Z,988.16
2017-09-11T01:44:41.872Z,988.17
2017-09-11T01:45:51.901Z,988.21
2017-09-11T01:47:01.931Z,988.2
2017-09-11T01:48:12.259Z,988.24
2017-09-11T01:49:22.596Z,988.27
2017-09-11T01:50:32.941Z,988.29
2017-09-11T01:51:43.277Z,988.28
2017-09-11T01:52:53.293Z,988.21
2017-09-11T01:54:03.647Z,988.16
2017-09-11T01:55:13.678Z,988.14
2017-09-11T01:56:23.705Z,988.08
2017-09-11T01:57:33.430Z,988.05
2017-09-11T01:58:45.510Z,988.01
2017-09-11T01:59:55.851Z,987.95
2017-09-11T02:01:06.178Z,987.92
2017-09-11T02:02:16.221Z,987.88
2017-09-11T02:03:27.498Z,987.84
2017-09-11T02:04:37.891Z,987.86
2017-09-11T02:05:48.225Z,987.84
2017-09-11T02:06:58.572Z,987.84
2017-09-11T02:08:08.598Z,987.83
2017-09-11T02:09:18.938Z,987.82
2017-09-11T02:10:29.281Z,987.84
2017-09-11T02:11:38.998Z,987.86
2017-09-11T02:12:49.352Z,987.85
2017-09-11T02:13:59.381Z,987.84
2017-09-11T02:15:09.728Z,987.86
2017-09-11T02:16:19.491Z,987.81
2017-09-11T02:17:29.198Z,987.79
2017-09-11T02:18:39.226Z,987.77
2017-09-11T02:19:49.566Z,987.78
2017-09-11T02:21:00.147Z,987.75
2017-09-11T02:22:10.483Z,987.73
2017-09-11T02:23:20.831Z,987.73
2017-09-11T02:24:30.850Z,987.76
2017-09-11T02:25:41.186Z,987.76
2017-09-11T02:26:51.526Z,987.79
2017-09-11T02:28:01.284Z,987.76
2017-09-11T02:29:11.315Z,987.75
2017-09-11T02:30:21.661Z,987.72
2017-09-11T02:31:31.989Z,987.74
2017-09-11T02:32:42.370Z,987.76
2017-09-11T02:33:52.748Z,987.77
2017-09-11T02:35:03.089Z,987.7
2017-09-11T02:36:13.123Z,987.71
2017-09-11T02:37:23.143Z,987.74
2017-09-11T02:38:32.845Z,987.74
2017-09-11T02:39:43.243Z,987.75
2017-09-11T02:40:53.265Z,987.79
2017-09-11T02:42:03.289Z,987.79
2017-09-11T02:43:14.483Z,987.79
2017-09-11T02:44:24.512Z,987.85
2017-09-11T02:45:34.868Z,987.86
2017-09-11T02:46:45.226Z,987.89
2017-09-11T02:47:55.555Z,987.85
2017-09-11T02:49:05.584Z,987.81
2017-09-11T02:50:15.289Z,987.75
2017-09-11T02:51:25.634Z,987.7
2017-09-11T02:52:35.681Z,987.67
2017-09-11T02:53:46.213Z,987.68
2017-09-11T02:54:56.580Z,987.65
2017-09-11T02:56:06.912Z,987.66
2017-09-11T02:57:17.684Z,987.75
2017-09-11T02:58:28.028Z,987.77
2017-09-11T02:59:39.822Z,987.77
2017-09-11T03:00:50.174Z,987.75
2017-09-11T03:02:00.525Z,987.72
2017-09-11T03:34:05.429Z,987.54
2017-09-11T03:35:15.441Z,987.5
2017-09-11T03:36:25.448Z,987.49
2017-09-11T03:37:35.451Z,987.5
2017-09-11T03:38:45.796Z,987.48
2017-09-11T03:39:56.153Z,987.45
2017-09-11T03:41:06.495Z,987.4
2017-09-11T03:42:16.516Z,987.32
2017-09-11T03:43:26.862Z,987.28
2017-09-11T03:44:37.217Z,987.28
2017-09-11T03:45:47.552Z,987.28
2017-09-11T03:46:57.889Z,987.27
2017-09-11T03:48:07.961Z,987.28
2017-09-11T03:49:18.303Z,987.25
2017-09-11T03:50:28.658Z,987.25
2017-09-11T03:51:38.740Z,987.19
2017-09-11T03:52:48.453Z,987.18
2017-09-11T03:53:58.784Z,987.16
2017-09-11T03:55:09.125Z,987.13
2017-09-11T03:56:19.458Z,987.15
2017-09-11T03:57:29.529Z,987.21
2017-09-11T03:58:39.242Z,987.18
2017-09-11T03:59:49.618Z,987.23
2017-09-11T04:00:59.648Z,987.24
2017-09-11T04:02:10.002Z,987.23
2017-09-11T04:03:20.437Z,987.27
2017-09-11T04:04:30.784Z,987.29
2017-09-11T04:05:40.814Z,987.2
2017-09-11T04:06:50.821Z,987.17
2017-09-11T04:08:02.354Z,987.11
2017-09-11T04:09:12.764Z,987.1
2017-09-11T04:10:23.133Z,987.13
2017-09-11T04:11:33.480Z,987.12
2017-09-11T04:12:43.522Z,987.14
2017-09-11T04:13:53.866Z,987.19
2017-09-11T04:15:04.204Z,987.17
2017-09-11T04:16:14.218Z,987.19
2017-09-11T04:17:24.232Z,987.18
2017-09-11T04:18:36.595Z,987.23
2017-09-11T04:19:46.952Z,987.26
2017-09-11T04:20:56.984Z,987.29
2017-09-11T04:22:07.319Z,987.26
2017-09-11T04:23:17.669Z,987.24
2017-09-11T04:24:27.689Z,987.24
2017-09-11T04:25:38.045Z,987.21
2017-09-11T04:26:48.453Z,987.13
2017-09-11T04:27:58.781Z,987.09
2017-09-11T04:29:08.851Z,987.11
2017-09-11T04:30:19.188Z,987.1
2017-09-11T04:31:29.214Z,987.16
2017-09-11T04:32:39.562Z,987.13
2017-09-11T04:33:49.896Z,987.1
2017-09-11T04:35:00.225Z,987.07
2017-09-11T04:36:10.253Z,987.01
2017-09-11T04:37:20.585Z,986.94
2017-09-11T04:38:30.937Z,986.93
2017-09-11T04:39:41.285Z,986.92
2017-09-11T04:40:51.633Z,986.93
2017-09-11T04:42:01.975Z,986.9
2017-09-11T04:43:12.017Z,986.96
2017-09-11T04:44:22.089Z,986.97
2017-09-11T04:45:32.127Z,987.04
2017-09-11T04:46:42.154Z,987.03
2017-09-11T04:47:52.170Z,987.06
2017-09-11T04:49:02.524Z,987.03
2017-09-11T04:50:12.918Z,987.1
2017-09-11T04:51:23.268Z,987.11
2017-09-11T04:52:34.581Z,987.07
2017-09-11T04:53:44.925Z,987.07
2017-09-11T04:54:55.255Z,987.03
2017-09-11T04:56:05.647Z,986.99
2017-09-11T04:57:15.990Z,987.02
2017-09-11T04:58:26.341Z,986.97
2017-09-11T04:59:36.680Z,986.95
2017-09-11T05:00:47.016Z,986.96
2017-09-11T05:01:57.397Z,986.95
2017-09-11T05:03:07.740Z,986.97
2017-09-11T05:04:18.075Z,987.01
2017-09-11T05:05:27.780Z,987.01
2017-09-11T05:06:38.125Z,986.98
2017-09-11T05:07:48.464Z,986.97
2017-09-11T05:08:58.796Z,986.94
2017-09-11T05:10:09.143Z,986.97
2017-09-11T05:11:19.481Z,986.97
2017-09-11T05:12:29.509Z,986.97
2017-09-11T05:13:40.051Z,986.96
2017-09-11T05:14:50.392Z,986.96
2017-09-11T05:16:00.427Z,986.96
2017-09-11T05:17:10.779Z,986.93
2017-09-11T05:18:21.122Z,986.95
2017-09-11T05:19:31.458Z,986.97
2017-09-11T05:20:41.471Z,986.98
2017-09-11T05:21:54.295Z,986.98
2017-09-11T05:23:04.004Z,986.98
2017-09-11T05:24:14.345Z,986.99
2017-09-11T05:25:24.380Z,987.01
2017-09-11T05:26:34.405Z,986.96
2017-09-11T05:27:46.955Z,986.91
2017-09-11T05:28:57.287Z,986.97
2017-09-11T05:30:07.635Z,987
2017-09-11T05:31:17.985Z,987.03
2017-09-11T05:32:28.335Z,987.01
2017-09-11T05:33:38.676Z,987.01
2017-09-11T05:34:49.013Z,986.95
2017-09-11T05:35:59.392Z,987.02
2017-09-11T05:37:09.769Z,986.99
2017-09-11T05:38:20.108Z,986.99
2017-09-11T05:39:30.133Z,986.94
2017-09-11T05:40:40.164Z,986.92
2017-09-11T05:41:50.512Z,986.92
2017-09-11T05:43:00.845Z,986.92
2017-09-11T05:44:11.190Z,986.99
2017-09-11T05:45:21.532Z,986.93
2017-09-11T05:46:31.767Z,986.96
2017-09-11T05:47:42.109Z,986.98
2017-09-11T05:48:52.452Z,986.96
2017-09-11T05:50:02.795Z,986.96
2017-09-11T05:51:13.656Z,986.97
2017-09-11T05:52:24.010Z,986.96
2017-09-11T05:53:33.720Z,986.97
2017-09-11T05:54:44.113Z,986.94
2017-09-11T05:55:54.477Z,986.89
2017-09-11T05:57:04.825Z,986.9
2017-09-11T05:58:15.162Z,986.94
2017-09-11T05:59:25.950Z,986.92
2017-09-11T06:00:36.463Z,986.88
2017-09-11T06:01:46.808Z,986.91
2017-09-11T06:02:57.162Z,986.87
2017-09-11T06:04:07.224Z,986.86
2017-09-11T06:05:17.828Z,986.89
2017-09-11T06:06:28.233Z,986.91
2017-09-11T06:07:38.590Z,986.95
2017-09-11T06:08:48.618Z,986.96
2017-09-11T06:09:58.956Z,987.04
2017-09-11T06:11:09.301Z,987.08
2017-09-11T06:12:19.353Z,987.06
2017-09-11T06:13:29.701Z,987.06
2017-09-11T06:14:39.401Z,987.06
2017-09-11T06:15:49.750Z,987.12
2017-09-11T06:16:59.775Z,987.14
2017-09-11T06:18:09.869Z,987.15
2017-09-11T06:19:19.894Z,987.17
2017-09-11T06:20:30.236Z,987.15
2017-09-11T06:21:40.256Z,987.17
2017-09-11T06:22:50.585Z,987.15
2017-09-11T06:24:00.645Z,987.14
2017-09-11T06:25:10.992Z,987.07
2017-09-11T06:26:20.719Z,987.05
2017-09-11T06:27:31.718Z,987
2017-09-11T06:28:42.054Z,986.98
2017-09-11T06:29:52.389Z,986.99
2017-09-11T06:31:02.711Z,987.03
2017-09-11T06:32:14.162Z,987.06
2017-09-11T06:33:24.235Z,987.04
2017-09-11T06:34:34.596Z,987.1
2017-09-11T06:35:44.658Z,987.13
2017-09-11T06:36:54.675Z,987.11
2017-09-11T06:38:05.021Z,987.08
2017-09-11T06:39:15.368Z,987.07
2017-09-11T06:40:25.708Z,987.04
2017-09-11T06:43:00.959Z,987.01
2017-09-11T06:44:11.301Z,986.99
2017-09-11T06:45:21.663Z,986.94
2017-09-11T06:46:32.007Z,986.93
2017-09-11T06:47:42.402Z,986.89
2017-09-11T06:48:52.743Z,986.92
2017-09-11T06:50:02.440Z,986.88
2017-09-11T06:51:12.479Z,986.82
2017-09-11T06:52:22.842Z,986.81
2017-09-11T06:53:35.087Z,986.78
2017-09-11T06:54:45.428Z,986.78
2017-09-11T06:55:55.135Z,986.77
2017-09-11T06:57:06.592Z,986.71
2017-09-11T06:58:16.946Z,986.68
2017-09-11T06:59:26.959Z,986.72
2017-09-11T07:00:36.985Z,986.76
2017-09-11T07:01:47.351Z,986.73
2017-09-11T07:02:57.705Z,986.76
2017-09-11T07:04:08.075Z,986.73
2017-09-11T07:05:18.114Z,986.66
2017-09-11T07:06:28.148Z,986.66
2017-09-11T07:07:38.490Z,986.66
2017-09-11T07:08:48.833Z,986.7
2017-09-11T07:09:59.185Z,986.73
2017-09-11T07:11:09.216Z,986.74
2017-09-11T07:12:19.565Z,986.76
2017-09-11T07:13:29.919Z,986.75
2017-09-11T07:14:39.962Z,986.74
2017-09-11T07:15:50.325Z,986.8
2017-09-11T07:17:00.690Z,986.8
2017-09-11T07:18:10.741Z,986.82
2017-09-11T07:19:20.773Z,986.84
2017-09-11T07:20:30.814Z,986.9
2017-09-11T07:21:41.172Z,986.87
2017-09-11T07:22:51.509Z,986.86
2017-09-11T07:24:01.885Z,986.84
2017-09-11T07:25:12.263Z,986.81
2017-09-11T07:26:22.600Z,986.83
2017-09-11T07:27:32.947Z,986.79
2017-09-11T07:28:43.553Z,986.72
2017-09-11T07:29:53.580Z,986.64
2017-09-11T07:31:03.594Z,986.67
2017-09-11T07:32:13.940Z,986.65
2017-09-11T07:33:24.295Z,986.68
2017-09-11T07:34:34.324Z,986.72
2017-09-11T07:35:44.683Z,986.74
2017-09-11T07:36:55.028Z,986.69
2017-09-11T07:38:05.387Z,986.68
2017-09-11T07:39:15.746Z,986.76
2017-09-11T07:40:26.143Z,986.78
2017-09-11T07:41:40.237Z,986.86
2017-09-11T07:42:49.953Z,986.9
2017-09-11T07:44:00.296Z,986.93
2017-09-11T07:45:10.642Z,986.98
2017-09-11T07:46:20.979Z,986.96
2017-09-11T07:47:31.336Z,986.96
2017-09-11T07:48:41.074Z,986.94
2017-09-11T07:49:51.430Z,986.93
2017-09-11T07:51:01.772Z,986.97
2017-09-11T07:52:11.164Z,986.95
2017-09-11T07:53:21.525Z,987.08
2017-09-11T07:54:31.542Z,987.08
2017-09-11T07:55:41.897Z,987.08
2017-09-11T07:56:51.925Z,987.08
2017-09-11T07:59:26.944Z,987.18
2017-09-11T08:00:36.965Z,987.19
2017-09-11T08:01:48.628Z,987.18
2017-09-11T08:02:59.010Z,987.14
2017-09-11T08:04:09.052Z,987.14
2017-09-11T08:05:19.079Z,987.18
2017-09-11T08:06:29.106Z,987.19
2017-09-11T08:07:39.492Z,987.24
2017-09-11T08:08:49.524Z,987.34
2017-09-11T08:09:59.970Z,987.34
2017-09-11T08:11:10.318Z,987.37
2017-09-11T08:12:20.368Z,987.35
2017-09-11T08:13:30.736Z,987.33
2017-09-11T08:14:41.105Z,987.35
2017-09-11T08:15:51.501Z,987.37
2017-09-11T08:17:01.864Z,987.36
2017-09-11T08:18:12.248Z,987.37
2017-09-11T08:19:22.268Z,987.34
2017-09-11T08:20:32.289Z,987.39
2017-09-11T08:21:44.321Z,987.38
2017-09-11T08:22:54.689Z,987.4
2017-09-11T08:24:07.112Z,987.38
2017-09-11T08:25:17.159Z,987.32
2017-09-11T08:26:27.525Z,987.31
2017-09-11T08:27:37.891Z,987.31
2017-09-11T08:28:47.933Z,987.3
2017-09-11T08:29:58.283Z,987.26
2017-09-11T08:31:08.641Z,987.24
2017-09-11T08:32:18.987Z,987.22
2017-09-11T08:33:29.019Z,987.21
2017-09-11T08:34:39.383Z,987.25
2017-09-11T08:35:49.760Z,987.28
2017-09-11T08:36:59.485Z,987.25
2017-09-11T08:38:10.552Z,987.3
2017-09-11T08:39:20.961Z,987.28
2017-09-11T08:40:30.996Z,987.28
2017-09-11T08:41:41.025Z,987.25
2017-09-11T08:42:51.378Z,987.25
2017-09-11T08:44:01.718Z,987.26
2017-09-11T08:45:12.079Z,987.21
2017-09-11T08:46:22.444Z,987.23
2017-09-11T08:47:32.818Z,987.26
2017-09-11T08:48:43.192Z,987.25
2017-09-11T08:49:55.512Z,987.3
2017-09-11T08:51:05.884Z,987.26
2017-09-11T08:52:15.914Z,987.27
2017-09-11T08:53:26.277Z,987.21
2017-09-11T08:54:36.325Z,987.21
2017-09-11T08:55:46.671Z,987.21
2017-09-11T08:56:57.090Z,987.15
2017-09-11T08:58:07.443Z,987.18
2017-09-11T08:59:17.786Z,987.16
2017-09-11T09:00:27.865Z,987.17
2017-09-11T09:01:37.979Z,987.2
2017-09-11T09:02:48.366Z,987.17
2017-09-11T09:04:00.971Z,987.19
2017-09-11T09:05:11.351Z,987.19
2017-09-11T09:06:21.392Z,987.16
2017-09-11T09:07:31.758Z,987.16
2017-09-11T09:08:41.818Z,987.12
2017-09-11T09:09:54.042Z,987.08
2017-09-11T09:11:04.408Z,987.09
2017-09-11T09:12:14.486Z,987.09
2017-09-11T09:13:24.584Z,987.09
2017-09-11T09:14:34.676Z,987.1
2017-09-11T09:15:45.060Z,987.12
2017-09-11T09:16:57.715Z,987.11
2017-09-11T09:18:08.085Z,987.11
2017-09-11T09:19:18.477Z,987.11
2017-09-11T09:20:28.246Z,987.11
2017-09-11T09:21:38.321Z,987.1
2017-09-11T09:22:48.676Z,987.09
2017-09-11T09:23:58.981Z,987.06
2017-09-11T09:25:09.062Z,987.07
2017-09-11T09:26:19.429Z,987.03
2017-09-11T09:27:29.786Z,987.03
2017-09-11T09:28:40.185Z,987.02
2017-09-11T09:29:50.457Z,986.97
2017-09-11T09:31:00.462Z,986.96
2017-09-11T09:32:15.256Z,986.93
2017-09-11T09:33:28.132Z,986.95
2017-09-11T09:34:38.190Z,986.92
2017-09-11T09:35:48.620Z,986.91
2017-09-11T09:36:59.007Z,986.87
2017-09-11T09:38:09.393Z,986.81
2017-09-11T09:39:19.779Z,986.81
2017-09-11T09:40:30.143Z,986.83
2017-09-11T09:41:40.510Z,986.87
2017-09-11T09:42:50.885Z,986.88
2017-09-11T09:44:00.964Z,986.92
2017-09-11T09:45:11.351Z,986.94
2017-09-11T09:46:21.428Z,986.95
2017-09-11T09:47:31.837Z,986.98
2017-09-11T09:48:42.246Z,986.95
2017-09-11T09:49:52.629Z,986.94
2017-09-11T09:51:03.035Z,986.91
2017-09-11T09:52:15.169Z,986.87
2017-09-11T09:53:25.268Z,986.84
2017-09-11T09:54:35.021Z,986.84
2017-09-11T09:55:45.449Z,986.79
2017-09-11T09:56:55.821Z,986.78
2017-09-11T09:58:06.216Z,986.76
2017-09-11T09:59:16.291Z,986.73
2017-09-11T10:00:26.654Z,986.72
2017-09-11T10:01:36.706Z,986.65
2017-09-11T10:02:47.166Z,986.63
2017-09-11T10:03:57.546Z,986.57
2017-09-11T10:05:07.631Z,986.55
2017-09-11T10:06:18.018Z,986.51
2017-09-11T10:07:28.386Z,986.5
2017-09-11T10:08:38.819Z,986.54
2017-09-11T10:09:48.577Z,986.53
2017-09-11T10:10:58.974Z,986.55
2017-09-11T10:12:09.035Z,986.55
2017-09-11T10:13:19.092Z,986.53
2017-09-11T10:14:29.642Z,986.51
2017-09-11T10:15:39.681Z,986.52
2017-09-11T10:16:49.728Z,986.53
2017-09-11T10:18:00.147Z,986.48
2017-09-11T10:19:10.544Z,986.51
2017-09-11T10:20:20.973Z,986.52
2017-09-11T10:21:31.364Z,986.52
2017-09-11T10:22:41.784Z,986.46
2017-09-11T10:23:52.156Z,986.41
2017-09-11T10:25:02.558Z,986.41
2017-09-11T10:26:12.997Z,986.39
2017-09-11T10:27:23.380Z,986.37
2017-09-11T10:28:34.223Z,986.32
2017-09-11T10:29:44.626Z,986.3
2017-09-11T10:30:55.037Z,986.33
2017-09-11T10:32:05.475Z,986.3
2017-09-11T10:33:15.851Z,986.26
2017-09-11T10:34:26.230Z,986.24
2017-09-11T10:35:36.607Z,986.26
2017-09-11T10:36:46.982Z,986.16
2017-09-11T10:37:57.097Z,986.11
2017-09-11T10:39:07.474Z,986.11
2017-09-11T10:40:17.890Z,986.23
2017-09-11T10:41:28.256Z,986.33
2017-09-11T10:42:38.291Z,986.35
2017-09-11T10:43:48.715Z,986.44
2017-09-11T10:44:59.093Z,986.47
2017-09-11T10:46:09.470Z,986.44
2017-09-11T10:47:19.854Z,986.44
2017-09-11T10:48:30.245Z,986.48
2017-09-11T10:49:40.614Z,986.49
2017-09-11T10:50:51.012Z,986.49
2017-09-11T10:52:01.421Z,986.48
2017-09-11T10:53:11.801Z,986.52
2017-09-11T10:54:22.177Z,986.61
2017-09-11T10:55:32.281Z,986.64
2017-09-11T10:56:42.640Z,986.59
2017-09-11T10:57:53.002Z,986.58
2017-09-11T10:59:03.118Z,986.64
2017-09-11T11:00:13.557Z,986.73
2017-09-11T11:01:23.975Z,986.79
2017-09-11T11:02:34.026Z,986.78
2017-09-11T11:03:44.407Z,986.79
2017-09-11T11:04:54.990Z,986.8
2017-09-11T11:06:05.338Z,986.84
2017-09-11T11:07:15.714Z,986.81
2017-09-11T11:08:25.762Z,986.81
2017-09-11T11:09:36.119Z,986.76
2017-09-11T11:10:46.496Z,986.74
2017-09-11T11:11:56.537Z,986.67
2017-09-11T11:13:06.913Z,986.66
2017-09-11T11:14:17.255Z,986.64
2017-09-11T11:15:27.296Z,986.64
2017-09-11T11:16:37.657Z,986.64
2017-09-11T11:17:48.007Z,986.66
2017-09-11T11:18:58.392Z,986.68
2017-09-11T11:20:08.457Z,986.74
2017-09-11T11:21:18.806Z,986.69
2017-09-11T11:22:29.200Z,986.66
2017-09-11T11:23:39.556Z,986.72
2017-09-11T11:24:49.599Z,986.71
2017-09-11T11:25:59.953Z,986.66
2017-09-11T11:27:09.986Z,986.65
2017-09-11T11:28:20.354Z,986.69
2017-09-11T11:29:30.092Z,986.75
2017-09-11T11:30:40.194Z,986.8
2017-09-11T11:31:50.545Z,986.85
2017-09-11T11:33:00.898Z,986.87
2017-09-11T11:34:11.245Z,986.79
2017-09-11T11:35:21.604Z,986.78
2017-09-11T11:36:31.669Z,986.8
2017-09-11T11:37:42.018Z,986.85
2017-09-11T11:38:52.255Z,986.91
2017-09-11T11:40:02.631Z,986.99
2017-09-11T11:41:12.989Z,986.97
2017-09-11T11:42:23.388Z,986.92
2017-09-11T11:43:33.746Z,986.85
2017-09-11T11:44:44.095Z,986.77
2017-09-11T11:45:54.137Z,986.81
2017-09-11T11:47:04.192Z,986.77
2017-09-11T11:48:14.576Z,986.72
2017-09-11T11:49:24.944Z,986.66
2017-09-11T11:50:35.299Z,986.62
2017-09-11T11:51:45.349Z,986.65
2017-09-11T11:52:55.068Z,986.62
2017-09-11T11:54:05.110Z,986.63
2017-09-11T11:55:15.466Z,986.65
2017-09-11T11:56:25.821Z,986.6
2017-09-11T11:57:36.181Z,986.58
2017-09-11T11:58:46.548Z,986.54
2017-09-11T11:59:56.966Z,986.54
2017-09-11T12:01:07.320Z,986.55
2017-09-11T12:02:17.357Z,986.58
2017-09-11T12:03:27.398Z,986.55
2017-09-11T12:04:37.764Z,986.56
2017-09-11T12:05:48.172Z,986.49
2017-09-11T12:06:58.536Z,986.44
2017-09-11T12:08:08.886Z,986.43
2017-09-11T12:09:19.254Z,986.43
2017-09-11T12:10:29.606Z,986.37
2017-09-11T12:11:39.997Z,986.4
2017-09-11T12:12:50.029Z,986.38
2017-09-11T12:14:00.376Z,986.34
2017-09-11T12:15:11.660Z,986.27
2017-09-11T12:16:22.017Z,986.21
2017-09-11T12:17:32.134Z,986.19
2017-09-11T12:18:42.493Z,986.18
2017-09-11T12:19:52.861Z,986.28
2017-09-11T12:21:02.925Z,986.35
2017-09-11T12:22:13.277Z,986.41
2017-09-11T12:23:23.668Z,986.48
2017-09-11T12:24:33.996Z,986.45
2017-09-11T12:25:44.353Z,986.42
2017-09-11T12:26:54.707Z,986.41
2017-09-11T12:28:04.746Z,986.41
2017-09-11T12:29:15.142Z,986.43
2017-09-11T12:30:26.973Z,986.46
2017-09-11T12:31:36.692Z,986.36
2017-09-11T12:32:47.051Z,986.35
2017-09-11T12:33:57.463Z,986.36
2017-09-11T12:35:07.950Z,986.36
2017-09-11T12:36:18.108Z,986.39
2017-09-11T12:37:28.150Z,986.46
2017-09-11T12:38:37.893Z,986.49
2017-09-11T12:39:47.936Z,986.49
2017-09-11T12:40:58.398Z,986.47
2017-09-11T12:42:08.770Z,986.47
2017-09-11T12:43:19.121Z,986.41
2017-09-11T12:44:29.515Z,986.36
2017-09-11T12:45:39.907Z,986.33
2017-09-11T12:46:50.321Z,986.38
2017-09-11T12:48:00.844Z,986.38
2017-09-11T12:49:11.219Z,986.39
2017-09-11T12:50:21.584Z,986.34
2017-09-11T12:51:31.941Z,986.39
2017-09-11T12:52:42.418Z,986.36
2017-09-11T12:53:52.784Z,986.33
2017-09-11T12:55:02.910Z,986.27
2017-09-11T12:56:12.942Z,986.23
2017-09-11T12:57:23.059Z,986.22
2017-09-11T12:58:33.516Z,986.17
2017-09-11T12:59:43.895Z,986.15
2017-09-11T13:00:54.322Z,986.18
2017-09-11T13:02:04.684Z,986.13
2017-09-11T13:03:15.053Z,986.15
2017-09-11T13:04:25.451Z,986.16
2017-09-11T13:05:35.872Z,986.14
2017-09-11T13:06:45.979Z,986.15
2017-09-11T13:07:56.346Z,986.17
2017-09-11T13:09:06.765Z,986.14
2017-09-11T13:10:17.260Z,986.14
2017-09-11T13:11:27.346Z,986.15
2017-09-11T13:12:40.753Z,986.11
2017-09-11T13:13:51.137Z,986.06
2017-09-11T13:15:01.179Z,986.02
2017-09-11T13:16:11.535Z,986.01
2017-09-11T13:17:21.954Z,986.02
2017-09-11T13:18:32.315Z,986.06
2017-09-11T13:19:42.665Z,986.07
2017-09-11T13:20:52.704Z,985.96
2017-09-11T13:22:02.750Z,985.95
2017-09-11T13:23:13.107Z,985.92
2017-09-11T13:24:23.482Z,985.89
2017-09-11T13:25:33.495Z,985.87
2017-09-11T13:26:44.090Z,985.83
2017-09-11T13:27:54.118Z,985.86
2017-09-11T13:29:04.458Z,985.9
2017-09-11T13:30:14.514Z,985.82
2017-09-11T13:31:24.857Z,985.76
2017-09-11T13:32:34.879Z,985.66
2017-09-11T13:33:45.280Z,985.62
2017-09-11T13:34:55.625Z,985.62
2017-09-11T13:36:05.983Z,985.59
2017-09-11T13:37:16.020Z,985.56
2017-09-11T13:38:26.380Z,985.56
2017-09-11T13:39:36.460Z,985.54
2017-09-11T13:40:46.515Z,985.43
2017-09-11T13:41:57.574Z,985.53
2017-09-11T13:43:07.937Z,985.54
2017-09-11T13:44:19.920Z,985.6
2017-09-11T13:45:30.286Z,985.63
2017-09-11T13:46:41.708Z,985.62
2017-09-11T13:47:51.431Z,985.56
2017-09-11T13:49:01.836Z,985.54
2017-09-11T13:50:11.559Z,985.48
2017-09-11T13:51:23.741Z,985.47
2017-09-11T13:52:34.113Z,985.45
2017-09-11T13:53:44.482Z,985.43
2017-09-11T13:54:54.533Z,985.37
2017-09-11T13:56:04.893Z,985.37
2017-09-11T13:57:15.236Z,985.39
2017-09-11T13:58:25.304Z,985.31
2017-09-11T13:59:36.647Z,985.27
2017-09-11T14:00:47.000Z,985.27
2017-09-11T14:01:59.421Z,985.36
2017-09-11T14:03:09.470Z,985.35
2017-09-11T14:04:19.827Z,985.29
2017-09-11T14:05:30.191Z,985.22
2017-09-11T14:06:40.565Z,985.2
2017-09-11T14:07:50.964Z,985.2
2017-09-11T14:09:01.373Z,985.19
2017-09-11T14:10:11.746Z,985.2
2017-09-11T14:11:22.407Z,985.17
2017-09-11T14:12:32.756Z,985.2
2017-09-11T14:13:43.119Z,985.18
2017-09-11T14:14:53.537Z,985.19
2017-09-11T14:16:03.926Z,985.27
2017-09-11T14:17:13.975Z,985.35
2017-09-11T14:18:24.344Z,985.31
2017-09-11T14:19:34.710Z,985.35
2017-09-11T14:20:45.077Z,985.4
2017-09-11T14:21:55.455Z,985.46
2017-09-11T14:23:05.816Z,985.48
2017-09-11T14:24:16.184Z,985.51
2017-09-11T14:25:26.547Z,985.56
2017-09-11T14:26:36.653Z,985.53
2017-09-11T14:27:47.022Z,985.42
2017-09-11T14:28:57.392Z,985.37
2017-09-11T14:30:07.761Z,985.35
2017-09-11T14:31:18.153Z,985.49
2017-09-11T14:32:28.260Z,985.5
2017-09-11T14:33:38.640Z,985.57
2017-09-11T14:34:48.703Z,985.54
2017-09-11T14:35:59.085Z,985.58
2017-09-11T14:37:09.444Z,985.61
2017-09-11T14:38:19.859Z,985.61
2017-09-11T14:39:30.228Z,985.66
2017-09-11T14:40:40.583Z,985.63
2017-09-11T14:41:51.172Z,985.63
2017-09-11T14:43:01.184Z,985.56
2017-09-11T14:44:11.556Z,985.53
2017-09-11T14:45:21.896Z,985.43
2017-09-11T14:46:31.917Z,985.35
2017-09-11T14:47:42.305Z,985.34
2017-09-11T14:48:52.672Z,985.43
2017-09-11T14:50:03.074Z,985.42
2017-09-11T14:51:13.424Z,985.42
2017-09-11T14:52:23.778Z,985.37
2017-09-11T14:53:34.116Z,985.31
2017-09-11T14:54:44.458Z,985.31
2017-09-11T14:55:54.493Z,985.33
2017-09-11T14:57:04.845Z,985.35
2017-09-11T14:58:15.239Z,985.38
2017-09-11T14:59:25.604Z,985.38
2017-09-11T15:00:35.656Z,985.38
2017-09-11T15:01:46.033Z,985.33
2017-09-11T15:02:55.756Z,985.29
2017-09-11T15:04:06.155Z,985.32
2017-09-11T15:05:16.199Z,985.44
2017-09-11T15:06:26.254Z,985.5
2017-09-11T15:07:37.724Z,985.53
2017-09-11T15:08:48.095Z,985.54
2017-09-11T15:09:58.500Z,985.53
2017-09-11T15:11:08.856Z,985.55
2017-09-11T15:12:19.224Z,985.59
2017-09-11T15:13:29.600Z,985.56